Time;durP1;ratioP1;P1;durP2;ratioP2;P2;SDS_P1;SDS_P2;PMS_P1;PMS_P2;Temp;Humidity;BMP_temperature;BMP_pressure;BME280_temperature;BME280_humidity;BME280_pressure;Samples;Min_cycle;Max_cycle;Signal;HPM_P1;HPM_P2
2022/08/31 00:05:38;;;;;;;3.90;2.80;;;;;;;18.97;57.53;99365.48;239326;1190;138685;-59
2022/08/31 00:10:46;;;;;;;5.20;3.00;;;;;;;18.90;57.74;99363.11;239143;1190;139087;-59
2022/08/31 00:15:51;;;;;;;5.60;2.90;;;;;;;18.83;57.86;99366.60;239204;1190;139163;-58
2022/08/31 00:20:54;;;;;;;6.60;2.90;;;;;;;18.78;58.05;99364.41;238336;1190;139498;-56
2022/08/31 00:25:58;;;;;;;3.60;2.50;;;;;;;18.74;58.01;99365.66;239141;1190;140436;-57
2022/08/31 00:31:01;;;;;;;3.80;2.40;;;;;;;18.73;58.05;99369.17;236920;1192;140466;-59
2022/08/31 00:36:08;;;;;;;4.60;2.60;;;;;;;18.74;58.20;99366.55;236869;1190;139277;-58
2022/08/31 00:41:10;;;;;;;7.30;2.60;;;;;;;18.74;58.46;99364.96;239081;1190;139597;-57
2022/08/31 00:46:18;;;;;;;4.30;2.40;;;;;;;18.72;58.36;99363.36;239154;1190;138971;-59
2022/08/31 00:51:24;;;;;;;7.10;2.60;;;;;;;18.67;58.56;99366.71;238966;1191;139202;-60
2022/08/31 00:56:30;;;;;;;3.60;2.20;;;;;;;18.64;58.56;99366.70;238877;1190;139328;-57
2022/08/31 01:01:33;;;;;;;3.90;2.60;;;;;;;18.57;58.76;99359.56;238669;1190;142292;-57
2022/08/31 01:06:37;;;;;;;4.20;2.70;;;;;;;18.52;58.76;99356.12;239147;1190;139121;-60
2022/08/31 01:11:41;;;;;;;4.30;2.40;;;;;;;18.48;58.79;99358.46;239016;1192;139207;-60
2022/08/31 01:16:49;;;;;;;4.60;2.30;;;;;;;18.43;58.97;99360.85;238957;1190;141379;-60
2022/08/31 01:22:18;;;;;;;6.70;2.20;;;;;;;18.42;58.86;99364.52;239184;1190;140251;-60
2022/08/31 01:27:26;;;;;;;3.20;2.10;;;;;;;18.42;58.93;99360.38;239053;1191;139484;-59
2022/08/31 01:32:29;;;;;;;7.00;2.30;;;;;;;18.41;58.94;99356.32;239193;1190;139903;-58
2022/08/31 01:37:32;;;;;;;5.50;2.90;;;;;;;18.40;58.97;99358.73;239233;1191;139156;-59
2022/08/31 01:42:38;;;;;;;3.60;2.10;;;;;;;18.37;58.98;99362.42;238935;1191;139843;-59
2022/08/31 01:47:43;;;;;;;3.30;2.00;;;;;;;18.36;59.20;99361.08;238945;1191;140383;-59
2022/08/31 01:52:46;;;;;;;3.70;2.20;;;;;;;18.38;59.24;99360.05;238298;1192;139265;-58
2022/08/31 01:57:49;;;;;;;4.90;2.10;;;;;;;18.39;59.21;99361.35;237126;1190;139370;-57
2022/08/31 02:03:19;;;;;;;4.10;1.90;;;;;;;18.35;59.28;99365.17;237126;1191;139590;-56
2022/08/31 02:08:22;;;;;;;3.80;2.20;;;;;;;18.32;59.23;99365.99;239057;1190;140155;-58
2022/08/31 02:13:25;;;;;;;4.10;2.10;;;;;;;18.31;59.21;99366.05;238130;1191;140122;-59
2022/08/31 02:18:28;;;;;;;5.60;2.20;;;;;;;18.29;59.33;99363.56;237943;1190;139217;-56
2022/08/31 02:23:31;;;;;;;3.40;2.30;;;;;;;18.22;59.30;99362.92;239340;1191;139074;-58
2022/08/31 02:28:34;;;;;;;5.10;2.30;;;;;;;18.14;59.21;99358.35;239218;1191;138830;-56
2022/08/31 02:33:38;;;;;;;3.70;2.30;;;;;;;18.07;59.51;99351.98;236968;1191;140056;-57
2022/08/31 02:38:41;;;;;;;6.10;2.00;;;;;;;18.01;59.54;99353.66;238242;1190;138846;-57
2022/08/31 02:43:44;;;;;;;5.70;2.40;;;;;;;17.93;59.75;99358.46;238360;1192;139407;-58
2022/08/31 02:48:48;;;;;;;4.70;2.70;;;;;;;17.81;59.49;99356.63;238512;1191;139803;-59
2022/08/31 02:53:52;;;;;;;5.30;2.50;;;;;;;17.72;59.75;99355.04;239081;1191;141613;-58
2022/08/31 02:58:56;;;;;;;4.10;2.30;;;;;;;17.74;59.89;99352.90;237719;1190;140332;-58
2022/08/31 03:03:59;;;;;;;3.50;2.30;;;;;;;17.77;60.15;99357.92;239158;1190;140093;-58
2022/08/31 03:09:03;;;;;;;2.70;2.10;;;;;;;17.72;60.05;99356.99;236944;1190;138785;-59
2022/08/31 03:14:06;;;;;;;4.20;2.20;;;;;;;17.66;60.16;99355.41;237650;1190;139748;-59
2022/08/31 03:19:09;;;;;;;5.30;2.20;;;;;;;17.58;60.33;99364.30;239173;1190;141037;-58
2022/08/31 03:24:13;;;;;;;6.50;2.40;;;;;;;17.53;60.45;99361.69;239029;1191;139108;-58
2022/08/31 03:29:16;;;;;;;4.20;2.30;;;;;;;17.49;60.52;99369.73;238952;1190;140245;-58
2022/08/31 03:34:31;;;;;;;5.70;2.30;;;;;;;17.45;60.70;99369.38;239224;1190;139666;-59
2022/08/31 03:39:34;;;;;;;4.70;2.30;;;;;;;17.47;60.65;99369.75;238997;1190;139732;-58
2022/08/31 03:44:38;;;;;;;8.40;3.00;;;;;;;17.52;60.70;99362.34;238974;1191;139232;-59
2022/08/31 03:49:43;;;;;;;6.40;2.60;;;;;;;17.53;60.72;99359.72;237933;1190;138873;-58
2022/08/31 03:54:54;;;;;;;4.10;2.30;;;;;;;17.52;60.78;99355.67;237065;1190;139557;-58
2022/08/31 03:59:59;;;;;;;6.30;2.70;;;;;;;17.49;60.62;99358.07;237172;1190;138877;-59
2022/08/31 04:05:20;;;;;;;6.60;2.50;;;;;;;17.44;61.03;99357.27;238549;1191;139572;-57
2022/08/31 04:10:43;;;;;;;4.00;2.40;;;;;;;17.38;61.07;99357.02;239011;1190;139140;-57
2022/08/31 04:15:59;;;;;;;4.60;2.40;;;;;;;17.35;60.99;99360.35;239255;1190;140121;-58
2022/08/31 04:21:39;;;;;;;5.00;2.20;;;;;;;17.40;61.46;99359.44;238262;1190;140446;-58
2022/08/31 04:26:50;;;;;;;277.80;194.00;;;;;;;17.52;61.51;99364.14;239186;1190;140177;-58
2022/08/31 04:31:53;;;;;;;8.90;4.90;;;;;;;17.67;61.76;99365.90;238903;1190;140602;-59
2022/08/31 04:36:57;;;;;;;51.40;37.90;;;;;;;17.83;61.73;99375.91;237402;1190;139573;-58
2022/08/31 04:42:04;;;;;;;13.20;7.50;;;;;;;17.93;61.59;99387.73;239074;1190;139660;-58
2022/08/31 04:47:08;;;;;;;;;;;;;;;18.02;61.39;99385.54;239188;1190;139748;-57
2022/08/31 04:52:11;;;;;;;47.00;32.50;;;;;;;18.09;61.62;99383.42;238204;1190;126398;-58
2022/08/31 04:57:15;;;;;;;12.30;8.90;;;;;;;18.20;61.54;99391.64;237554;1191;139764;-60
2022/08/31 05:02:18;;;;;;;6.00;2.60;;;;;;;18.63;62.55;99383.85;236840;1190;139315;-59
2022/08/31 05:07:27;;;;;;;229.20;178.00;;;;;;;19.05;61.86;99384.23;236875;1190;141995;-60
2022/08/31 05:12:32;;;;;;;23.70;18.10;;;;;;;19.18;61.16;99391.31;236957;1190;140603;-61
2022/08/31 05:17:35;;;;;;;32.60;19.90;;;;;;;19.43;61.81;99391.00;237110;1190;139280;-57
2022/08/31 05:22:38;;;;;;;16.00;11.00;;;;;;;19.76;61.55;99392.02;237311;1191;140182;-60
2022/08/31 05:27:42;;;;;;;122.40;100.20;;;;;;;19.90;60.97;99394.88;236724;1192;139834;-58
2022/08/31 05:32:47;;;;;;;16.40;5.10;;;;;;;19.92;60.28;99399.86;236876;1192;139765;-59
2022/08/31 05:37:50;;;;;;;14.20;4.00;;;;;;;19.74;59.52;99397.75;238967;1190;139648;-60
2022/08/31 05:42:58;;;;;;;23.00;5.40;;;;;;;19.61;59.67;99398.64;239138;1190;140580;-58
2022/08/31 05:48:01;;;;;;;15.10;3.70;;;;;;;19.62;60.04;99411.48;239128;1190;140156;-57
2022/08/31 05:53:06;;;;;;;27.60;4.20;;;;;;;19.81;60.33;99412.73;239047;1191;140047;-58
2022/08/31 05:58:09;;;;;;;16.00;3.70;;;;;;;19.93;59.91;99411.09;239193;1191;140728;-59
2022/08/31 06:03:12;;;;;;;20.50;5.50;;;;;;;20.12;60.23;99411.49;237614;1191;140398;-57
2022/08/31 06:08:16;;;;;;;10.40;2.90;;;;;;;20.35;60.26;99416.30;238764;1191;139199;-58
2022/08/31 06:13:25;;;;;;;80.70;59.10;;;;;;;20.45;59.75;99424.65;237079;1190;139583;-58
2022/08/31 06:18:29;;;;;;;20.20;9.50;;;;;;;20.38;59.18;99424.63;238688;1190;139519;-58
2022/08/31 06:23:32;;;;;;;17.00;6.50;;;;;;;20.33;59.30;99429.11;239319;1190;140226;-58
2022/08/31 06:28:48;;;;;;;14.90;4.00;;;;;;;20.51;59.69;99430.77;237979;1190;139937;-60
2022/08/31 06:33:54;;;;;;;19.80;5.40;;;;;;;20.67;59.62;99437.38;239144;1190;139382;-59
2022/08/31 06:39:16;;;;;;;33.10;21.00;;;;;;;20.80;59.16;99445.85;239077;1191;139241;-57
2022/08/31 06:44:51;;;;;;;8.30;3.80;;;;;;;20.71;58.55;99450.14;238952;1190;139416;-57
2022/08/31 06:49:57;;;;;;;4.80;2.40;;;;;;;20.60;58.33;99450.88;239192;1190;139177;-60
2022/08/31 06:55:01;;;;;;;6.50;2.80;;;;;;;20.52;58.38;99448.95;238992;1190;139423;-62
2022/08/31 07:00:22;;;;;;;5.00;2.40;;;;;;;20.53;58.58;99456.02;238992;1190;140255;-60
2022/08/31 07:05:44;;;;;;;5.20;2.40;;;;;;;20.54;58.65;99454.98;237092;1190;139276;-60
2022/08/31 07:10:47;;;;;;;5.80;2.40;;;;;;;20.54;58.70;99461.31;237223;1190;139896;-58
2022/08/31 07:15:50;;;;;;;11.60;2.80;;;;;;;20.53;58.79;99464.63;237122;1190;138773;-59
2022/08/31 07:20:54;;;;;;;4.90;2.20;;;;;;;20.58;58.99;99458.43;237230;1192;139727;-59
2022/08/31 07:26:10;;;;;;;6.90;2.20;;;;;;;20.63;58.93;99455.42;238954;1190;141026;-60
2022/08/31 07:31:16;;;;;;;49.50;38.00;;;;;;;20.68;59.02;99454.16;237686;1190;138904;-61
2022/08/31 07:36:23;;;;;;;5.30;2.60;;;;;;;20.81;59.17;99456.92;237274;1190;139163;-59
2022/08/31 07:47:02;;;;;;;6.70;3.20;;;;;;;21.04;59.15;99458.62;239033;1191;140236;-60
2022/08/31 07:52:05;;;;;;;8.50;2.90;;;;;;;21.39;59.63;99459.52;237837;1191;139481;-60
2022/08/31 07:57:28;;;;;;;4.50;1.80;;;;;;;21.71;59.47;99460.57;239176;1190;141769;-57
2022/08/31 08:02:38;;;;;;;19.80;15.70;;;;;;;21.81;58.69;99463.37;239136;1192;139070;-59
2022/08/31 08:07:41;;;;;;;5.10;1.80;;;;;;;21.77;58.04;99462.69;239206;1190;139378;-59
2022/08/31 08:13:04;;;;;;;4.10;2.00;;;;;;;21.64;57.89;99463.45;238946;1191;142688;-57
2022/08/31 08:18:20;;;;;;;5.20;2.00;;;;;;;21.56;57.69;99463.17;239126;1190;139611;-58
2022/08/31 08:23:27;;;;;;;70.90;52.40;;;;;;;21.45;57.66;99465.54;237392;1190;139081;-60
2022/08/31 08:29:04;;;;;;;32.90;25.50;;;;;;;21.56;58.70;99469.82;237017;1190;139674;-60
2022/08/31 08:34:12;;;;;;;20.20;14.20;;;;;;;21.84;58.85;99476.58;238709;1190;140039;-57
2022/08/31 08:39:16;;;;;;;5.00;3.10;;;;;;;22.14;58.71;99471.16;238000;1192;139995;-58
2022/08/31 08:44:32;;;;;;;6.40;3.80;;;;;;;22.37;58.34;99464.27;238770;1192;139627;-58
2022/08/31 08:49:40;;;;;;;237.30;183.00;;;;;;;22.53;57.80;99466.09;238491;1192;139313;-57
2022/08/31 08:54:47;;;;;;;15.70;12.10;;;;;;;22.58;57.28;99472.70;238647;1192;140322;-58
2022/08/31 08:59:54;;;;;;;10.40;7.20;;;;;;;22.62;56.76;99471.41;238858;1190;139272;-58
2022/08/31 09:05:23;;;;;;;7.90;4.20;;;;;;;22.58;56.40;99468.77;238908;1190;140075;-57
2022/08/31 09:11:07;;;;;;;62.00;44.70;;;;;;;22.54;56.30;99470.27;238475;1192;140529;-58
2022/08/31 09:16:21;;;;;;;10.40;6.60;;;;;;;22.52;56.54;99463.65;238501;1192;140096;-57
2022/08/31 09:21:42;;;;;;;8.40;4.90;;;;;;;22.61;56.88;99461.52;238660;1192;140068;-57
2022/08/31 09:26:53;;;;;;;195.10;154.50;;;;;;;22.71;56.80;99454.55;238615;1190;139800;-57
2022/08/31 09:32:15;;;;;;;17.40;9.60;;;;;;;22.73;56.29;99448.18;238916;1190;139977;-57
2022/08/31 09:37:24;;;;;;;6.20;3.70;;;;;;;22.68;56.02;99445.25;238861;1192;139908;-57
2022/08/31 09:42:32;;;;;;;12.70;7.20;;;;;;;22.67;56.15;99444.84;238934;1192;139589;-57
2022/08/31 09:47:51;;;;;;;11.10;6.40;;;;;;;22.75;56.60;99442.35;239010;1190;139064;-58
2022/08/31 09:58:32;;;;;;;6.50;4.20;;;;;;;22.96;56.23;99433.54;238840;1192;139553;-58
2022/08/31 10:03:36;;;;;;;9.80;3.20;;;;;;;23.02;56.29;99432.81;238663;1192;140858;-57
2022/08/31 10:08:52;;;;;;;4.60;2.50;;;;;;;23.13;56.23;99427.59;238841;1192;139210;-58
2022/08/31 10:14:06;;;;;;;10.20;3.60;;;;;;;23.22;56.19;99429.23;238947;1191;139779;-57
2022/08/31 10:19:16;;;;;;;25.10;7.60;;;;;;;23.28;56.11;99427.86;238765;1191;138922;-57
2022/08/31 10:24:36;;;;;;;21.40;7.20;;;;;;;23.34;56.09;99431.50;238435;1192;139692;-61
2022/08/31 10:29:53;;;;;;;10.40;5.30;;;;;;;23.48;56.11;99428.19;238940;1190;138873;-58
2022/08/31 10:35:06;;;;;;;11.70;7.30;;;;;;;23.69;55.93;99421.17;238679;1192;140148;-58
2022/08/31 10:40:23;;;;;;;8.00;7.20;;;;;;;23.78;55.49;99422.55;238821;1190;141193;-58
2022/08/31 10:45:28;;;;;;;8.10;5.60;;;;;;;23.77;55.27;99416.64;238908;1190;139000;-58
2022/08/31 10:50:43;;;;;;;6.40;2.90;;;;;;;23.72;55.04;99415.94;238615;1192;140055;-58
2022/08/31 10:56:01;;;;;;;;;;;;;;;23.71;54.86;99412.61;238579;1192;139503;-58
2022/08/31 11:01:50;;;;;;;6.00;2.00;;;;;;;23.70;54.81;99416.17;238565;1190;125793;-59
2022/08/31 11:07:12;;;;;;;9.20;1.50;;;;;;;23.66;54.61;99413.15;238227;1192;139240;-58
2022/08/31 11:12:22;;;;;;;2.80;1.30;;;;;;;23.59;54.27;99411.69;238794;1191;139670;-59
2022/08/31 11:17:48;;;;;;;4.80;2.10;;;;;;;23.65;54.35;99406.19;238899;1192;138802;-58
2022/08/31 11:23:25;;;;;;;4.50;1.70;;;;;;;23.70;54.04;99402.92;238981;1190;138894;-58
2022/08/31 11:28:37;;;;;;;2.20;1.40;;;;;;;23.73;53.91;99399.02;238624;1190;139145;-58
2022/08/31 11:33:49;;;;;;;5.90;2.10;;;;;;;23.75;53.64;99394.39;239006;1190;139233;-58
2022/08/31 11:39:12;;;;;;;7.50;3.60;;;;;;;23.73;53.03;99390.95;238708;1192;140071;-59
2022/08/31 11:44:28;;;;;;;3.10;1.90;;;;;;;23.78;52.85;99387.05;238342;1192;139205;-59
2022/08/31 11:49:38;;;;;;;4.50;2.50;;;;;;;23.90;52.49;99379.11;238458;1192;139595;-58
2022/08/31 11:54:49;;;;;;;6.00;3.60;;;;;;;24.01;52.03;99376.86;238667;1192;139235;-58
2022/08/31 11:59:52;;;;;;;3.40;2.70;;;;;;;24.18;51.71;99374.73;238938;1192;139601;-58
2022/08/31 12:05:01;;;;;;;4.00;2.40;;;;;;;24.34;51.38;99365.24;238800;1192;138960;-58
2022/08/31 12:10:31;;;;;;;4.30;1.70;;;;;;;24.64;51.16;99365.45;238966;1190;139872;-58
2022/08/31 12:16:05;;;;;;;5.70;1.50;;;;;;;24.95;50.51;99353.34;237594;1192;141001;-58
2022/08/31 12:27:03;;;;;;;3.80;1.80;;;;;;;25.23;49.56;99342.07;238657;1192;139678;-58
2022/08/31 12:32:28;;;;;;;53.40;25.50;;;;;;;25.27;49.00;99337.77;238854;1190;140366;-58
2022/08/31 12:37:33;;;;;;;7.70;3.20;;;;;;;25.16;48.94;99341.98;238901;1190;140252;-59
2022/08/31 12:42:42;;;;;;;6.00;3.00;;;;;;;25.02;48.65;99337.25;238648;1192;140152;-57
2022/08/31 12:48:11;;;;;;;2.80;1.40;;;;;;;24.78;48.36;99338.97;238651;1192;139478;-57
2022/08/31 12:53:23;;;;;;;7.50;1.70;;;;;;;24.56;48.12;99335.20;238869;1190;141262;-58
2022/08/31 12:58:36;;;;;;;3.70;1.80;;;;;;;24.40;48.23;99328.57;238863;1191;141154;-58
2022/08/31 13:03:47;;;;;;;6.90;1.50;;;;;;;24.27;48.29;99326.54;238736;1192;139802;-58
2022/08/31 13:08:57;;;;;;;2.50;1.20;;;;;;;24.19;48.03;99327.45;238576;1192;139355;-58
2022/08/31 13:14:17;;;;;;;3.20;2.60;;;;;;;24.12;48.02;99324.08;237934;1192;139294;-59
2022/08/31 13:19:22;;;;;;;4.10;2.00;;;;;;;24.10;47.88;99321.67;238857;1190;139519;-57
2022/08/31 13:24:32;;;;;;;2.60;0.90;;;;;;;24.07;47.41;99315.41;238689;1192;139776;-57
2022/08/31 13:29:44;;;;;;;8.40;1.80;;;;;;;24.01;46.93;99312.81;238492;1192;140383;-58
2022/08/31 13:34:48;;;;;;;1.70;0.90;;;;;;;23.96;46.90;99309.59;238493;1192;140009;-57
2022/08/31 13:39:51;;;;;;;1.90;1.10;;;;;;;23.93;46.46;99308.20;238753;1192;139287;-58
2022/08/31 13:45:01;;;;;;;2.10;0.90;;;;;;;23.91;46.55;99305.48;238790;1191;139744;-59
2022/08/31 13:50:15;;;;;;;2.80;1.20;;;;;;;23.94;46.62;99307.89;238210;1191;139600;-59
2022/08/31 13:55:32;;;;;;;17.00;12.00;;;;;;;23.95;46.50;99305.20;238705;1192;139522;-58
2022/08/31 14:00:41;;;;;;;5.60;3.30;;;;;;;23.92;46.30;99307.19;238534;1191;141514;-58
2022/08/31 14:05:44;;;;;;;3.90;1.50;;;;;;;23.85;46.21;99299.73;238779;1191;140664;-58
2022/08/31 14:10:48;;;;;;;8.40;4.10;;;;;;;23.80;46.10;99305.60;238906;1190;139236;-58
2022/08/31 14:15:55;;;;;;;4.20;1.60;;;;;;;23.78;45.95;99304.05;238836;1191;141528;-58
2022/08/31 14:21:04;;;;;;;2.40;1.10;;;;;;;23.73;45.82;99302.91;238748;1190;139848;-58
2022/08/31 14:26:26;;;;;;;4.70;1.30;;;;;;;23.70;45.66;99303.52;238656;1191;139007;-59
2022/08/31 14:31:42;;;;;;;36.00;25.80;;;;;;;23.67;45.56;99300.96;237258;1192;140241;-60
2022/08/31 14:36:51;;;;;;;9.90;4.00;;;;;;;23.65;45.53;99298.04;238630;1190;139395;-59
2022/08/31 14:41:59;;;;;;;3.50;2.20;;;;;;;23.65;45.58;99298.23;238644;1192;139534;-58
2022/08/31 14:47:03;;;;;;;5.10;1.30;;;;;;;23.66;45.54;99301.92;238602;1190;139078;-58
2022/08/31 14:52:06;;;;;;;3.50;1.10;;;;;;;23.68;45.45;99298.11;238732;1190;139466;-58
2022/08/31 14:57:14;;;;;;;6.60;1.20;;;;;;;23.64;45.31;99293.98;238362;1192;138933;-59
2022/08/31 15:02:20;;;;;;;4.90;1.10;;;;;;;23.64;45.31;99288.96;237380;1192;139657;-59
2022/08/31 15:07:23;;;;;;;7.40;1.60;;;;;;;23.67;45.15;99287.84;238347;1192;139759;-59
2022/08/31 15:12:27;;;;;;;5.70;1.70;;;;;;;23.69;45.14;99295.65;237925;1190;138727;-61
2022/08/31 15:17:34;;;;;;;3.40;1.30;;;;;;;23.67;45.13;99294.90;238422;1192;140661;-58
2022/08/31 15:22:39;;;;;;;3.20;1.40;;;;;;;23.64;45.11;99298.38;237450;1192;139294;-59
2022/08/31 15:27:43;;;;;;;3.70;0.90;;;;;;;23.59;45.09;99297.98;237808;1192;139740;-58
2022/08/31 15:32:47;;;;;;;6.00;1.30;;;;;;;23.52;44.96;99294.42;237999;1191;139923;-58
2022/08/31 15:37:57;;;;;;;4.00;1.30;;;;;;;23.46;44.93;99293.84;237747;1192;139079;-57
2022/08/31 15:43:02;;;;;;;3.10;1.30;;;;;;;23.42;44.90;99294.80;238097;1192;237967;-58
2022/08/31 15:53:29;;;;;;;46.60;36.70;;;;;;;23.33;44.71;99293.10;238552;1192;139558;-59
2022/08/31 15:58:33;;;;;;;;;;;;;;;23.26;44.33;99291.65;238539;1190;139943;-58
2022/08/31 16:03:39;;;;;;;25.80;14.00;;;;;;;23.18;44.20;99292.77;238910;1190;125740;-58
2022/08/31 16:08:42;;;;;;;6.40;1.70;;;;;;;23.08;44.04;99289.52;238389;1192;139552;-58
2022/08/31 16:13:50;;;;;;;6.40;1.40;;;;;;;22.92;43.94;99291.59;238444;1192;138942;-58
2022/08/31 16:18:58;;;;;;;5.00;1.30;;;;;;;22.76;43.99;99295.92;238655;1191;140541;-58
2022/08/31 16:24:06;;;;;;;4.60;1.10;;;;;;;22.62;43.97;99294.82;238671;1190;140159;-58
2022/08/31 16:29:12;;;;;;;2.40;0.90;;;;;;;22.49;44.00;99297.90;238468;1192;139469;-58
2022/08/31 16:34:17;;;;;;;4.70;1.10;;;;;;;22.36;44.03;99300.06;238300;1192;139711;-58
2022/08/31 16:39:20;;;;;;;5.00;0.90;;;;;;;22.26;44.00;99295.55;238576;1191;139791;-59
2022/08/31 16:44:29;;;;;;;3.90;1.20;;;;;;;22.17;43.91;99300.42;238481;1192;139274;-58
2022/08/31 16:49:42;;;;;;;2.50;1.20;;;;;;;22.07;43.89;99298.42;238336;1192;139825;-58
2022/08/31 16:54:49;;;;;;;4.50;1.30;;;;;;;21.99;44.02;99298.88;237760;1191;140018;-58
2022/08/31 16:59:57;;;;;;;3.40;1.20;;;;;;;21.92;44.07;99298.04;238014;1192;139784;-58
2022/08/31 17:05:03;;;;;;;5.20;1.10;;;;;;;21.87;44.11;99302.14;238739;1190;140000;-58
2022/08/31 17:10:07;;;;;;;9.20;1.70;;;;;;;21.82;44.19;99302.28;238134;1191;139298;-58
2022/08/31 17:15:12;;;;;;;6.20;1.10;;;;;;;21.75;44.20;99308.47;238361;1191;139166;-58
2022/08/31 17:20:15;;;;;;;2.90;1.00;;;;;;;21.69;44.52;99309.40;238483;1191;138870;-58
2022/08/31 17:25:18;;;;;;;2.80;1.30;;;;;;;21.67;44.71;99313.81;238667;1192;139289;-59
2022/08/31 17:30:22;;;;;;;139.30;105.70;;;;;;;21.64;44.89;99311.73;238530;1192;139421;-56
2022/08/31 17:35:25;;;;;;;16.20;12.70;;;;;;;21.65;44.89;99315.32;238332;1192;139556;-59
2022/08/31 17:40:29;;;;;;;5.10;1.80;;;;;;;21.67;45.09;99321.16;238624;1190;140282;-59
2022/08/31 17:45:34;;;;;;;5.50;2.40;;;;;;;21.60;44.84;99323.69;238612;1191;139646;-57
2022/08/31 17:50:42;;;;;;;;;;;;;;;21.55;45.38;99329.14;238516;1191;139317;-58
2022/08/31 17:55:55;;;;;;;3.50;1.60;;;;;;;21.56;45.47;99334.45;238556;1191;126089;-58
2022/08/31 18:00:59;;;;;;;15.20;7.60;;;;;;;21.55;45.47;99335.33;238637;1191;139407;-57
2022/08/31 18:06:02;;;;;;;12.90;8.50;;;;;;;21.60;46.37;99337.70;238685;1190;139457;-58
2022/08/31 18:11:06;;;;;;;12.30;5.90;;;;;;;21.67;46.53;99342.02;238541;1191;141105;-58
2022/08/31 18:16:12;;;;;;;13.30;7.90;;;;;;;21.65;46.24;99344.30;238563;1191;139529;-57
2022/08/31 18:21:21;;;;;;;6.10;2.50;;;;;;;21.55;46.04;99346.23;238519;1190;140460;-58
2022/08/31 18:26:29;;;;;;;6.30;2.00;;;;;;;21.40;45.94;99347.30;238647;1191;139644;-58
2022/08/31 18:31:32;;;;;;;7.20;2.70;;;;;;;21.20;46.00;99352.91;238334;1192;139905;-58
2022/08/31 18:36:37;;;;;;;8.40;2.50;;;;;;;21.02;46.08;99353.05;238063;1191;140631;-57
2022/08/31 18:47:06;;;;;;;32.40;25.70;;;;;;;20.82;46.60;99354.93;238431;1191;139707;-59
2022/08/31 18:52:18;;;;;;;22.60;15.00;;;;;;;20.83;47.56;99359.86;238551;1191;140471;-57
2022/08/31 18:57:25;;;;;;;5.40;2.40;;;;;;;20.85;47.18;99367.42;238331;1192;141059;-58
2022/08/31 19:02:28;;;;;;;5.00;1.80;;;;;;;20.67;47.09;99362.89;238412;1191;141904;-58
2022/08/31 19:07:32;;;;;;;4.30;2.20;;;;;;;20.52;47.20;99366.70;238373;1192;139236;-58
2022/08/31 19:12:37;;;;;;;5.70;1.90;;;;;;;20.35;47.32;99368.32;238664;1190;138862;-57
2022/08/31 19:17:44;;;;;;;5.70;1.80;;;;;;;20.23;47.75;99374.55;238861;1192;139060;-57
2022/08/31 19:22:47;;;;;;;6.50;1.80;;;;;;;20.14;48.00;99370.24;238668;1192;139594;-57
2022/08/31 19:27:50;;;;;;;7.60;2.00;;;;;;;20.04;48.13;99367.49;238436;1191;139845;-57
2022/08/31 19:32:55;;;;;;;3.50;2.00;;;;;;;19.97;48.30;99367.34;238380;1190;142687;-58
2022/08/31 19:37:59;;;;;;;5.00;2.00;;;;;;;19.94;48.57;99364.89;238639;1190;138964;-58
2022/08/31 19:43:05;;;;;;;4.20;2.10;;;;;;;19.90;48.68;99365.34;238138;1192;139562;-59
2022/08/31 19:48:30;;;;;;;6.00;2.10;;;;;;;19.83;48.83;99363.06;238335;1192;139465;-58
2022/08/31 19:53:48;;;;;;;4.50;2.00;;;;;;;19.80;49.08;99358.73;238695;1190;139263;-58
2022/08/31 19:58:55;;;;;;;6.20;1.90;;;;;;;19.74;49.09;99361.83;238511;1191;138948;-57
2022/08/31 20:04:00;;;;;;;6.40;2.30;;;;;;;19.66;49.39;99361.13;238371;1192;139713;-58
2022/08/31 20:09:05;;;;;;;4.50;2.00;;;;;;;19.60;49.52;99361.94;238514;1191;139768;-58
2022/08/31 20:14:09;;;;;;;5.50;2.20;;;;;;;19.56;49.69;99363.11;238594;1192;140664;-58
2022/08/31 20:19:19;;;;;;;6.90;2.00;;;;;;;19.55;49.85;99366.80;238528;1191;139391;-59
2022/08/31 20:24:25;;;;;;;3.70;2.10;;;;;;;19.52;49.91;99371.55;238563;1192;139935;-59
2022/08/31 20:29:29;;;;;;;4.70;1.90;;;;;;;19.45;49.88;99379.02;238263;1192;139390;-58
2022/08/31 20:34:37;;;;;;;3.60;1.80;;;;;;;19.39;49.95;99377.99;238498;1192;139869;-59
2022/08/31 20:39:40;;;;;;;7.50;2.40;;;;;;;19.37;50.12;99374.41;238279;1191;140621;-59
2022/08/31 20:44:45;;;;;;;6.60;3.10;;;;;;;19.41;50.26;99376.90;238759;1190;139566;-59
2022/08/31 20:49:59;;;;;;;7.20;2.20;;;;;;;19.42;50.20;99372.15;238801;1191;140388;-61
2022/08/31 20:55:05;;;;;;;5.40;2.30;;;;;;;19.39;50.31;99371.02;238718;1191;140358;-59
2022/08/31 21:00:09;;;;;;;2.80;1.80;;;;;;;19.33;50.27;99370.08;238644;1191;139462;-59
2022/08/31 21:05:14;;;;;;;4.60;2.00;;;;;;;19.30;50.43;99370.77;238731;1190;139301;-59
2022/08/31 21:10:38;;;;;;;4.30;2.20;;;;;;;19.24;50.48;99370.60;238620;1190;139297;-59
2022/08/31 21:15:44;;;;;;;4.60;2.00;;;;;;;19.17;50.56;99369.60;238485;1191;139953;-60
2022/08/31 21:20:50;;;;;;;4.40;2.30;;;;;;;19.12;50.66;99371.88;238404;1191;139221;-59
2022/08/31 21:25:53;;;;;;;5.30;2.20;;;;;;;19.08;50.82;99371.36;238738;1192;141314;-59
2022/08/31 21:31:11;;;;;;;6.20;2.20;;;;;;;19.02;50.79;99367.63;238787;1190;140743;-59
2022/08/31 21:36:32;;;;;;;4.60;1.90;;;;;;;18.92;50.80;99364.68;238871;1191;139702;-58
2022/08/31 21:41:36;;;;;;;4.40;2.10;;;;;;;18.87;51.08;99370.20;238731;1191;139682;-59
2022/08/31 21:46:40;;;;;;;8.70;3.60;;;;;;;18.79;50.90;99365.40;238743;1191;139370;-59
2022/08/31 21:51:51;;;;;;;6.60;2.50;;;;;;;18.74;51.07;99368.17;238721;1191;139241;-59
2022/08/31 21:56:59;;;;;;;6.10;2.80;;;;;;;18.66;51.23;99365.20;238666;1191;140271;-59
2022/08/31 22:02:08;;;;;;;7.70;2.40;;;;;;;18.65;51.30;99362.82;238676;1191;140099;-59
2022/08/31 22:07:12;;;;;;;4.80;2.00;;;;;;;18.69;51.38;99359.08;238753;1190;140101;-59
2022/08/31 22:12:17;;;;;;;7.30;2.40;;;;;;;18.65;51.20;99364.09;238890;1190;139936;-58
2022/08/31 22:17:20;;;;;;;5.20;1.90;;;;;;;18.59;51.27;99365.73;238729;1191;140593;-59
2022/08/31 22:22:38;;;;;;;6.00;2.40;;;;;;;18.57;51.51;99366.22;238578;1191;139371;-59
2022/08/31 22:27:41;;;;;;;3.90;2.00;;;;;;;18.56;51.43;99373.33;238859;1190;139369;-59
2022/08/31 22:32:46;;;;;;;4.50;2.30;;;;;;;18.54;51.29;99379.29;238672;1191;140133;-59
2022/08/31 22:37:49;;;;;;;6.80;2.30;;;;;;;18.49;51.51;99374.20;238503;1192;139922;-59
2022/08/31 22:42:53;;;;;;;6.70;2.10;;;;;;;18.41;51.73;99368.17;238659;1191;139796;-57
2022/08/31 22:47:56;;;;;;;6.80;2.30;;;;;;;18.42;51.71;99365.42;238881;1192;139431;-57
2022/08/31 22:52:59;;;;;;;9.20;2.40;;;;;;;18.41;51.93;99362.78;238829;1190;140607;-58
2022/08/31 22:58:03;;;;;;;6.20;2.20;;;;;;;18.36;52.00;99361.69;238867;1190;141128;-58
2022/08/31 23:03:06;;;;;;;3.90;2.10;;;;;;;18.28;51.97;99358.27;238427;1191;140188;-57
2022/08/31 23:08:10;;;;;;;4.60;1.90;;;;;;;18.21;52.11;99356.38;238656;1192;139907;-57
2022/08/31 23:13:13;;;;;;;3.10;2.00;;;;;;;18.22;52.15;99353.23;238340;1192;140883;-56
2022/08/31 23:18:18;;;;;;;4.80;1.90;;;;;;;18.21;52.09;99353.46;238982;1190;140444;-58
2022/08/31 23:23:23;;;;;;;4.60;2.10;;;;;;;18.17;52.10;99351.33;238790;1191;139570;-58
2022/08/31 23:28:27;;;;;;;;;;;;;;;18.14;52.25;99351.73;238815;1192;139568;-58
2022/08/31 23:33:30;;;;;;;5.30;1.90;;;;;;;18.06;52.14;99351.92;238880;1191;125853;-58
2022/08/31 23:38:33;;;;;;;3.90;1.60;;;;;;;17.99;52.33;99351.63;238604;1192;139761;-57
2022/08/31 23:43:37;;;;;;;4.80;2.00;;;;;;;17.98;52.42;99356.23;238581;1192;139880;-57
2022/08/31 23:48:40;;;;;;;3.40;1.60;;;;;;;17.98;52.67;99355.89;238718;1191;139742;-58
2022/08/31 23:53:53;;;;;;;6.60;2.00;;;;;;;17.98;52.50;99353.54;238772;1192;139373;-57
2022/08/31 23:59:00;;;;;;;7.30;1.90;;;;;;;17.99;52.61;99346.67;238855;1192;139217;-58
